sensor_id;sensor_type;location;lat;lon;timestamp;temperature;humidity
12043;DHT22;6082;49.306;12.862;2023-07-20T00:00:49;20.80;96.10
12043;DHT22;6082;49.306;12.862;2023-07-20T00:03:19;20.80;96.30
12043;DHT22;6082;49.306;12.862;2023-07-20T00:05:51;20.70;96.30
12043;DHT22;6082;49.306;12.862;2023-07-20T00:08:17;20.70;96.40
12043;DHT22;6082;49.306;12.862;2023-07-20T00:10:44;20.70;96.50
12043;DHT22;6082;49.306;12.862;2023-07-20T00:13:11;20.70;96.90
12043;DHT22;6082;49.306;12.862;2023-07-20T00:15:36;20.70;97.00
12043;DHT22;6082;49.306;12.862;2023-07-20T00:18:03;20.60;97.20
12043;DHT22;6082;49.306;12.862;2023-07-20T00:20:29;20.60;97.10
12043;DHT22;6082;49.306;12.862;2023-07-20T00:22:55;20.50;97.30
12043;DHT22;6082;49.306;12.862;2023-07-20T00:25:23;20.50;97.40
12043;DHT22;6082;49.306;12.862;2023-07-20T00:27:49;20.50;97.80
12043;DHT22;6082;49.306;12.862;2023-07-20T00:30:15;20.50;97.80
12043;DHT22;6082;49.306;12.862;2023-07-20T00:32:42;20.50;97.80
12043;DHT22;6082;49.306;12.862;2023-07-20T00:35:08;20.40;97.70
12043;DHT22;6082;49.306;12.862;2023-07-20T00:37:34;20.40;97.70
12043;DHT22;6082;49.306;12.862;2023-07-20T00:39:59;20.40;97.80
12043;DHT22;6082;49.306;12.862;2023-07-20T00:42:25;20.30;98.00
12043;DHT22;6082;49.306;12.862;2023-07-20T00:44:51;20.30;98.00
12043;DHT22;6082;49.306;12.862;2023-07-20T00:47:16;20.30;98.10
12043;DHT22;6082;49.306;12.862;2023-07-20T00:49:42;20.30;98.10
12043;DHT22;6082;49.306;12.862;2023-07-20T00:52:10;20.20;98.00
12043;DHT22;6082;49.306;12.862;2023-07-20T00:54:38;20.20;98.10
12043;DHT22;6082;49.306;12.862;2023-07-20T00:57:04;20.20;98.20
12043;DHT22;6082;49.306;12.862;2023-07-20T00:59:33;20.20;98.30
12043;DHT22;6082;49.306;12.862;2023-07-20T01:01:59;20.20;98.30
12043;DHT22;6082;49.306;12.862;2023-07-20T01:04:25;20.20;98.40
12043;DHT22;6082;49.306;12.862;2023-07-20T01:07:25;20.20;98.60
12043;DHT22;6082;49.306;12.862;2023-07-20T01:12:42;20.10;98.60
12043;DHT22;6082;49.306;12.862;2023-07-20T01:15:09;20.10;99.10
12043;DHT22;6082;49.306;12.862;2023-07-20T01:17:35;20.10;99.20
12043;DHT22;6082;49.306;12.862;2023-07-20T01:20:01;20.00;99.40
12043;DHT22;6082;49.306;12.862;2023-07-20T01:25:39;20.00;99.50
12043;DHT22;6082;49.306;12.862;2023-07-20T01:33:25;20.00;99.50
12043;DHT22;6082;49.306;12.862;2023-07-20T01:35:57;19.90;99.40
12043;DHT22;6082;49.306;12.862;2023-07-20T01:38:24;20.00;99.70
12043;DHT22;6082;49.306;12.862;2023-07-20T01:40:51;19.90;99.60
12043;DHT22;6082;49.306;12.862;2023-07-20T01:43:17;19.90;99.60
12043;DHT22;6082;49.306;12.862;2023-07-20T01:45:44;19.90;99.70
12043;DHT22;6082;49.306;12.862;2023-07-20T01:48:10;19.90;99.80
12043;DHT22;6082;49.306;12.862;2023-07-20T01:50:36;19.90;99.90
12043;DHT22;6082;49.306;12.862;2023-07-20T01:53:02;19.90;99.90
12043;DHT22;6082;49.306;12.862;2023-07-20T01:55:27;19.80;99.90
12043;DHT22;6082;49.306;12.862;2023-07-20T01:57:55;19.80;99.90
12043;DHT22;6082;49.306;12.862;2023-07-20T02:00:21;19.70;99.90
12043;DHT22;6082;49.306;12.862;2023-07-20T02:02:49;19.70;99.90
12043;DHT22;6082;49.306;12.862;2023-07-20T02:05:15;19.70;99.90
12043;DHT22;6082;49.306;12.862;2023-07-20T02:07:41;19.70;99.90
12043;DHT22;6082;49.306;12.862;2023-07-20T02:10:07;19.70;99.90
12043;DHT22;6082;49.306;12.862;2023-07-20T02:12:33;19.70;99.90
12043;DHT22;6082;49.306;12.862;2023-07-20T02:15:02;19.70;99.90
12043;DHT22;6082;49.306;12.862;2023-07-20T02:17:28;19.70;99.90
12043;DHT22;6082;49.306;12.862;2023-07-20T02:19:55;19.70;99.90
12043;DHT22;6082;49.306;12.862;2023-07-20T02:22:21;19.70;99.90
12043;DHT22;6082;49.306;12.862;2023-07-20T02:24:47;19.70;99.90
12043;DHT22;6082;49.306;12.862;2023-07-20T02:27:13;19.70;99.90
12043;DHT22;6082;49.306;12.862;2023-07-20T02:29:40;19.70;99.90
12043;DHT22;6082;49.306;12.862;2023-07-20T02:32:07;19.70;99.90
12043;DHT22;6082;49.306;12.862;2023-07-20T02:34:32;19.70;99.90
12043;DHT22;6082;49.306;12.862;2023-07-20T02:36:58;19.70;99.90
12043;DHT22;6082;49.306;12.862;2023-07-20T02:39:27;19.70;99.90
12043;DHT22;6082;49.306;12.862;2023-07-20T02:41:53;19.70;99.90
12043;DHT22;6082;49.306;12.862;2023-07-20T02:44:19;19.60;99.90
12043;DHT22;6082;49.306;12.862;2023-07-20T02:46:45;19.60;99.90
12043;DHT22;6082;49.306;12.862;2023-07-20T02:49:11;19.60;99.90
12043;DHT22;6082;49.306;12.862;2023-07-20T02:51:37;19.60;99.90
12043;DHT22;6082;49.306;12.862;2023-07-20T02:54:02;19.60;99.90
12043;DHT22;6082;49.306;12.862;2023-07-20T02:56:29;19.50;99.90
12043;DHT22;6082;49.306;12.862;2023-07-20T02:58:55;19.50;99.90
12043;DHT22;6082;49.306;12.862;2023-07-20T03:01:21;19.50;99.90
12043;DHT22;6082;49.306;12.862;2023-07-20T03:03:46;19.50;99.90
12043;DHT22;6082;49.306;12.862;2023-07-20T03:06:16;19.50;99.90
12043;DHT22;6082;49.306;12.862;2023-07-20T03:08:43;19.50;99.90
12043;DHT22;6082;49.306;12.862;2023-07-20T03:11:17;19.50;99.90
12043;DHT22;6082;49.306;12.862;2023-07-20T03:13:43;19.50;99.90
12043;DHT22;6082;49.306;12.862;2023-07-20T03:16:10;19.50;99.90
12043;DHT22;6082;49.306;12.862;2023-07-20T03:18:39;19.50;99.90
12043;DHT22;6082;49.306;12.862;2023-07-20T03:21:06;19.50;99.90
12043;DHT22;6082;49.306;12.862;2023-07-20T03:23:32;19.50;99.90
12043;DHT22;6082;49.306;12.862;2023-07-20T03:25:58;19.50;99.90
12043;DHT22;6082;49.306;12.862;2023-07-20T03:28:24;19.50;99.90
12043;DHT22;6082;49.306;12.862;2023-07-20T03:30:56;19.40;99.90
12043;DHT22;6082;49.306;12.862;2023-07-20T03:33:26;19.40;99.90
12043;DHT22;6082;49.306;12.862;2023-07-20T03:35:53;19.40;99.90
12043;DHT22;6082;49.306;12.862;2023-07-20T03:38:20;19.40;99.90
12043;DHT22;6082;49.306;12.862;2023-07-20T03:43:15;19.30;99.90
12043;DHT22;6082;49.306;12.862;2023-07-20T03:45:41;19.30;99.90
12043;DHT22;6082;49.306;12.862;2023-07-20T03:48:06;19.30;99.90
12043;DHT22;6082;49.306;12.862;2023-07-20T03:50:32;19.30;99.90
12043;DHT22;6082;49.306;12.862;2023-07-20T03:52:58;19.30;99.90
12043;DHT22;6082;49.306;12.862;2023-07-20T03:55:24;19.30;99.90
12043;DHT22;6082;49.306;12.862;2023-07-20T03:57:49;19.30;99.90
12043;DHT22;6082;49.306;12.862;2023-07-20T04:00:17;19.30;99.90
12043;DHT22;6082;49.306;12.862;2023-07-20T04:02:43;19.20;99.90
12043;DHT22;6082;49.306;12.862;2023-07-20T04:05:09;19.20;99.90
12043;DHT22;6082;49.306;12.862;2023-07-20T04:07:34;19.20;99.90
12043;DHT22;6082;49.306;12.862;2023-07-20T04:10:00;19.20;99.90
12043;DHT22;6082;49.306;12.862;2023-07-20T04:12:26;19.20;99.90
12043;DHT22;6082;49.306;12.862;2023-07-20T04:14:51;19.20;99.90
12043;DHT22;6082;49.306;12.862;2023-07-20T04:17:18;19.20;99.90
12043;DHT22;6082;49.306;12.862;2023-07-20T04:19:44;19.20;99.90
12043;DHT22;6082;49.306;12.862;2023-07-20T04:22:09;19.20;99.90
12043;DHT22;6082;49.306;12.862;2023-07-20T04:24:35;19.20;99.90
12043;DHT22;6082;49.306;12.862;2023-07-20T04:27:01;19.10;99.90
12043;DHT22;6082;49.306;12.862;2023-07-20T04:29:27;19.10;99.90
12043;DHT22;6082;49.306;12.862;2023-07-20T04:31:53;19.10;99.90
12043;DHT22;6082;49.306;12.862;2023-07-20T04:34:18;19.10;99.90
12043;DHT22;6082;49.306;12.862;2023-07-20T04:36:44;19.10;99.90
12043;DHT22;6082;49.306;12.862;2023-07-20T04:39:10;19.10;99.90
12043;DHT22;6082;49.306;12.862;2023-07-20T04:41:36;19.10;99.90
12043;DHT22;6082;49.306;12.862;2023-07-20T04:44:02;19.10;99.90
12043;DHT22;6082;49.306;12.862;2023-07-20T04:46:28;19.20;99.90
12043;DHT22;6082;49.306;12.862;2023-07-20T04:48:54;19.20;99.90
12043;DHT22;6082;49.306;12.862;2023-07-20T04:51:19;19.20;99.90
12043;DHT22;6082;49.306;12.862;2023-07-20T04:53:49;19.20;99.90
12043;DHT22;6082;49.306;12.862;2023-07-20T04:56:15;19.20;99.90
12043;DHT22;6082;49.306;12.862;2023-07-20T04:58:40;19.20;99.90
12043;DHT22;6082;49.306;12.862;2023-07-20T05:01:06;19.20;99.90
12043;DHT22;6082;49.306;12.862;2023-07-20T05:03:33;19.20;99.90
12043;DHT22;6082;49.306;12.862;2023-07-20T05:05:58;19.20;99.90
12043;DHT22;6082;49.306;12.862;2023-07-20T05:08:24;19.10;99.90
12043;DHT22;6082;49.306;12.862;2023-07-20T05:10:50;19.10;99.90
12043;DHT22;6082;49.306;12.862;2023-07-20T05:13:16;19.10;99.90
12043;DHT22;6082;49.306;12.862;2023-07-20T05:15:42;19.10;99.90
12043;DHT22;6082;49.306;12.862;2023-07-20T05:18:08;19.10;99.90
12043;DHT22;6082;49.306;12.862;2023-07-20T05:20:37;19.10;99.90
12043;DHT22;6082;49.306;12.862;2023-07-20T05:23:03;19.20;99.90
12043;DHT22;6082;49.306;12.862;2023-07-20T05:25:28;19.20;99.90
12043;DHT22;6082;49.306;12.862;2023-07-20T05:27:57;19.20;99.90
12043;DHT22;6082;49.306;12.862;2023-07-20T05:30:23;19.20;99.90
12043;DHT22;6082;49.306;12.862;2023-07-20T05:32:48;19.20;99.90
12043;DHT22;6082;49.306;12.862;2023-07-20T05:35:18;19.20;99.90
12043;DHT22;6082;49.306;12.862;2023-07-20T05:37:44;19.20;99.90
12043;DHT22;6082;49.306;12.862;2023-07-20T05:40:11;19.30;99.90
12043;DHT22;6082;49.306;12.862;2023-07-20T05:42:38;19.40;99.90
12043;DHT22;6082;49.306;12.862;2023-07-20T05:45:04;19.30;99.90
12043;DHT22;6082;49.306;12.862;2023-07-20T05:47:30;19.40;99.90
12043;DHT22;6082;49.306;12.862;2023-07-20T05:49:56;19.40;99.90
12043;DHT22;6082;49.306;12.862;2023-07-20T05:52:22;19.50;99.90
12043;DHT22;6082;49.306;12.862;2023-07-20T05:54:47;19.50;99.90
12043;DHT22;6082;49.306;12.862;2023-07-20T05:57:13;19.60;99.90
12043;DHT22;6082;49.306;12.862;2023-07-20T05:59:39;19.60;99.90
12043;DHT22;6082;49.306;12.862;2023-07-20T06:02:06;19.70;99.90
12043;DHT22;6082;49.306;12.862;2023-07-20T06:04:33;19.80;99.90
12043;DHT22;6082;49.306;12.862;2023-07-20T06:06:59;19.80;99.90
12043;DHT22;6082;49.306;12.862;2023-07-20T06:09:24;19.80;99.90
12043;DHT22;6082;49.306;12.862;2023-07-20T06:11:50;19.90;99.90
12043;DHT22;6082;49.306;12.862;2023-07-20T06:14:16;19.90;99.90
12043;DHT22;6082;49.306;12.862;2023-07-20T06:16:42;19.90;99.90
12043;DHT22;6082;49.306;12.862;2023-07-20T06:19:07;19.90;99.90
12043;DHT22;6082;49.306;12.862;2023-07-20T06:21:33;20.00;99.90
12043;DHT22;6082;49.306;12.862;2023-07-20T06:23:59;20.00;99.90
12043;DHT22;6082;49.306;12.862;2023-07-20T06:26:25;20.10;99.90
12043;DHT22;6082;49.306;12.862;2023-07-20T06:28:50;20.10;99.90
12043;DHT22;6082;49.306;12.862;2023-07-20T06:31:16;20.10;99.90
12043;DHT22;6082;49.306;12.862;2023-07-20T06:33:42;20.20;99.90
12043;DHT22;6082;49.306;12.862;2023-07-20T06:36:08;20.20;99.90
12043;DHT22;6082;49.306;12.862;2023-07-20T06:38:33;20.20;99.90
12043;DHT22;6082;49.306;12.862;2023-07-20T06:40:59;20.30;99.90
12043;DHT22;6082;49.306;12.862;2023-07-20T06:43:25;20.20;99.90
12043;DHT22;6082;49.306;12.862;2023-07-20T06:45:54;20.20;99.90
12043;DHT22;6082;49.306;12.862;2023-07-20T06:48:20;20.20;99.90
12043;DHT22;6082;49.306;12.862;2023-07-20T06:50:46;20.20;99.90
12043;DHT22;6082;49.306;12.862;2023-07-20T06:53:12;20.30;99.90
12043;DHT22;6082;49.306;12.862;2023-07-20T06:55:38;20.30;99.90
12043;DHT22;6082;49.306;12.862;2023-07-20T06:58:07;20.30;99.90
12043;DHT22;6082;49.306;12.862;2023-07-20T07:00:33;20.30;99.90
12043;DHT22;6082;49.306;12.862;2023-07-20T07:02:58;20.30;99.90
12043;DHT22;6082;49.306;12.862;2023-07-20T07:05:24;20.40;99.90
12043;DHT22;6082;49.306;12.862;2023-07-20T07:07:50;20.50;99.90
12043;DHT22;6082;49.306;12.862;2023-07-20T07:10:15;20.60;99.90
12043;DHT22;6082;49.306;12.862;2023-07-20T07:12:41;20.60;99.90
12043;DHT22;6082;49.306;12.862;2023-07-20T07:15:07;20.70;99.90
12043;DHT22;6082;49.306;12.862;2023-07-20T07:17:33;20.80;99.90
12043;DHT22;6082;49.306;12.862;2023-07-20T07:20:00;20.90;99.90
12043;DHT22;6082;49.306;12.862;2023-07-20T07:22:26;21.00;99.90
12043;DHT22;6082;49.306;12.862;2023-07-20T07:24:51;21.10;99.90
12043;DHT22;6082;49.306;12.862;2023-07-20T07:27:17;21.10;99.90
12043;DHT22;6082;49.306;12.862;2023-07-20T07:29:43;21.10;99.90
12043;DHT22;6082;49.306;12.862;2023-07-20T07:32:12;21.10;99.90
12043;DHT22;6082;49.306;12.862;2023-07-20T07:34:38;21.10;99.90
12043;DHT22;6082;49.306;12.862;2023-07-20T07:37:05;21.10;99.90
12043;DHT22;6082;49.306;12.862;2023-07-20T07:39:31;21.20;99.90
12043;DHT22;6082;49.306;12.862;2023-07-20T07:41:56;21.20;99.90
12043;DHT22;6082;49.306;12.862;2023-07-20T07:44:23;21.20;99.90
12043;DHT22;6082;49.306;12.862;2023-07-20T07:46:49;21.30;99.90
12043;DHT22;6082;49.306;12.862;2023-07-20T07:49:15;21.40;99.90
12043;DHT22;6082;49.306;12.862;2023-07-20T07:51:41;21.30;99.90
12043;DHT22;6082;49.306;12.862;2023-07-20T07:54:07;21.40;99.90
12043;DHT22;6082;49.306;12.862;2023-07-20T07:56:32;21.50;99.90
12043;DHT22;6082;49.306;12.862;2023-07-20T07:59:01;21.50;99.90
12043;DHT22;6082;49.306;12.862;2023-07-20T08:01:28;21.60;99.90
12043;DHT22;6082;49.306;12.862;2023-07-20T08:03:54;21.70;99.90
12043;DHT22;6082;49.306;12.862;2023-07-20T08:06:20;21.80;99.90
12043;DHT22;6082;49.306;12.862;2023-07-20T08:08:46;21.80;99.90
12043;DHT22;6082;49.306;12.862;2023-07-20T08:11:11;21.90;99.90
12043;DHT22;6082;49.306;12.862;2023-07-20T08:13:37;22.00;99.90
12043;DHT22;6082;49.306;12.862;2023-07-20T08:16:04;22.00;99.90
12043;DHT22;6082;49.306;12.862;2023-07-20T08:18:30;22.10;99.90
12043;DHT22;6082;49.306;12.862;2023-07-20T08:20:56;22.20;99.90
12043;DHT22;6082;49.306;12.862;2023-07-20T08:23:22;22.30;99.90
12043;DHT22;6082;49.306;12.862;2023-07-20T08:25:48;22.40;99.90
12043;DHT22;6082;49.306;12.862;2023-07-20T08:28:15;22.50;99.90
12043;DHT22;6082;49.306;12.862;2023-07-20T08:30:46;22.50;99.80
12043;DHT22;6082;49.306;12.862;2023-07-20T08:33:17;22.60;99.50
12043;DHT22;6082;49.306;12.862;2023-07-20T08:35:46;22.70;99.20
12043;DHT22;6082;49.306;12.862;2023-07-20T08:38:12;22.80;98.90
12043;DHT22;6082;49.306;12.862;2023-07-20T08:40:43;22.90;98.50
12043;DHT22;6082;49.306;12.862;2023-07-20T08:43:14;22.90;98.40
12043;DHT22;6082;49.306;12.862;2023-07-20T08:45:42;23.00;97.90
12043;DHT22;6082;49.306;12.862;2023-07-20T08:48:11;22.90;97.50
12043;DHT22;6082;49.306;12.862;2023-07-20T08:50:38;22.90;97.30
12043;DHT22;6082;49.306;12.862;2023-07-20T08:53:04;22.90;97.30
12043;DHT22;6082;49.306;12.862;2023-07-20T08:55:30;22.90;97.00
12043;DHT22;6082;49.306;12.862;2023-07-20T08:57:58;22.90;97.10
12043;DHT22;6082;49.306;12.862;2023-07-20T09:00:25;23.00;97.20
12043;DHT22;6082;49.306;12.862;2023-07-20T09:02:53;23.10;97.20
12043;DHT22;6082;49.306;12.862;2023-07-20T09:05:24;23.20;97.10
12043;DHT22;6082;49.306;12.862;2023-07-20T09:07:52;23.30;96.80
12043;DHT22;6082;49.306;12.862;2023-07-20T09:10:22;23.40;96.60
12043;DHT22;6082;49.306;12.862;2023-07-20T09:12:48;23.40;96.10
12043;DHT22;6082;49.306;12.862;2023-07-20T09:15:14;23.40;95.70
12043;DHT22;6082;49.306;12.862;2023-07-20T09:17:49;23.30;95.60
12043;DHT22;6082;49.306;12.862;2023-07-20T09:20:16;23.20;95.80
12043;DHT22;6082;49.306;12.862;2023-07-20T09:22:42;23.20;94.80
12043;DHT22;6082;49.306;12.862;2023-07-20T09:25:16;23.10;94.50
12043;DHT22;6082;49.306;12.862;2023-07-20T09:27:46;23.10;95.10
12043;DHT22;6082;49.306;12.862;2023-07-20T09:30:14;23.20;94.80
12043;DHT22;6082;49.306;12.862;2023-07-20T09:32:48;23.30;95.10
12043;DHT22;6082;49.306;12.862;2023-07-20T09:35:25;23.40;94.60
12043;DHT22;6082;49.306;12.862;2023-07-20T09:37:55;23.40;93.20
12043;DHT22;6082;49.306;12.862;2023-07-20T09:40:26;23.30;92.30
12043;DHT22;6082;49.306;12.862;2023-07-20T09:42:54;23.20;92.50
12043;DHT22;6082;49.306;12.862;2023-07-20T09:45:44;23.20;92.70
12043;DHT22;6082;49.306;12.862;2023-07-20T09:48:10;23.30;92.80
12043;DHT22;6082;49.306;12.862;2023-07-20T09:50:48;23.40;92.60
12043;DHT22;6082;49.306;12.862;2023-07-20T09:53:15;23.50;92.10
12043;DHT22;6082;49.306;12.862;2023-07-20T09:55:45;23.50;92.00
12043;DHT22;6082;49.306;12.862;2023-07-20T09:58:12;23.60;91.80
12043;DHT22;6082;49.306;12.862;2023-07-20T10:00:38;23.70;91.90
12043;DHT22;6082;49.306;12.862;2023-07-20T10:03:05;23.80;91.00
12043;DHT22;6082;49.306;12.862;2023-07-20T10:05:39;23.80;90.90
12043;DHT22;6082;49.306;12.862;2023-07-20T10:08:11;23.80;90.90
12043;DHT22;6082;49.306;12.862;2023-07-20T10:10:38;23.80;90.20
12043;DHT22;6082;49.306;12.862;2023-07-20T10:13:05;23.80;90.60
12043;DHT22;6082;49.306;12.862;2023-07-20T10:15:45;23.80;90.20
12043;DHT22;6082;49.306;12.862;2023-07-20T10:21:23;23.90;91.00
12043;DHT22;6082;49.306;12.862;2023-07-20T10:23:50;24.00;90.70
12043;DHT22;6082;49.306;12.862;2023-07-20T10:26:16;24.10;91.00
12043;DHT22;6082;49.306;12.862;2023-07-20T10:28:41;24.10;90.60
12043;DHT22;6082;49.306;12.862;2023-07-20T10:31:12;24.20;90.40
12043;DHT22;6082;49.306;12.862;2023-07-20T10:33:38;24.20;88.80
12043;DHT22;6082;49.306;12.862;2023-07-20T10:36:05;24.20;88.90
12043;DHT22;6082;49.306;12.862;2023-07-20T10:41:20;24.20;87.30
12043;DHT22;6082;49.306;12.862;2023-07-20T10:43:47;24.20;85.20
12043;DHT22;6082;49.306;12.862;2023-07-20T10:46:13;24.20;81.20
12043;DHT22;6082;49.306;12.862;2023-07-20T10:49:18;24.20;79.70
12043;DHT22;6082;49.306;12.862;2023-07-20T10:51:57;24.30;81.40
12043;DHT22;6082;49.306;12.862;2023-07-20T10:56:52;24.40;79.40
12043;DHT22;6082;49.306;12.862;2023-07-20T10:59:37;24.60;80.30
12043;DHT22;6082;49.306;12.862;2023-07-20T11:02:07;24.60;80.80
12043;DHT22;6082;49.306;12.862;2023-07-20T11:04:40;24.60;81.40
12043;DHT22;6082;49.306;12.862;2023-07-20T11:07:06;24.60;81.20
12043;DHT22;6082;49.306;12.862;2023-07-20T11:09:36;24.50;81.30
12043;DHT22;6082;49.306;12.862;2023-07-20T11:12:10;24.50;81.10
12043;DHT22;6082;49.306;12.862;2023-07-20T11:15:00;24.50;81.80
12043;DHT22;6082;49.306;12.862;2023-07-20T11:17:32;24.60;79.00
12043;DHT22;6082;49.306;12.862;2023-07-20T11:19:59;24.70;76.50
12043;DHT22;6082;49.306;12.862;2023-07-20T11:22:31;24.70;77.50
12043;DHT22;6082;49.306;12.862;2023-07-20T11:24:57;24.70;77.80
12043;DHT22;6082;49.306;12.862;2023-07-20T11:27:24;24.70;77.90
12043;DHT22;6082;49.306;12.862;2023-07-20T11:29:49;24.70;75.70
12043;DHT22;6082;49.306;12.862;2023-07-20T11:32:24;24.60;77.20
12043;DHT22;6082;49.306;12.862;2023-07-20T11:34:50;24.70;74.60
12043;DHT22;6082;49.306;12.862;2023-07-20T11:37:19;24.70;75.50
12043;DHT22;6082;49.306;12.862;2023-07-20T11:39:45;24.80;75.90
12043;DHT22;6082;49.306;12.862;2023-07-20T11:42:11;24.80;76.30
12043;DHT22;6082;49.306;12.862;2023-07-20T11:44:38;24.80;76.60
12043;DHT22;6082;49.306;12.862;2023-07-20T11:47:05;24.90;74.90
12043;DHT22;6082;49.306;12.862;2023-07-20T11:49:50;25.00;77.00
12043;DHT22;6082;49.306;12.862;2023-07-20T11:52:19;25.00;75.40
12043;DHT22;6082;49.306;12.862;2023-07-20T11:54:46;25.00;76.40
12043;DHT22;6082;49.306;12.862;2023-07-20T11:57:17;25.00;76.10
12043;DHT22;6082;49.306;12.862;2023-07-20T12:02:27;25.20;75.30
12043;DHT22;6082;49.306;12.862;2023-07-20T12:04:54;25.10;74.00
12043;DHT22;6082;49.306;12.862;2023-07-20T12:07:20;25.10;75.30
12043;DHT22;6082;49.306;12.862;2023-07-20T12:10:06;25.10;74.70
12043;DHT22;6082;49.306;12.862;2023-07-20T12:12:42;25.10;75.10
12043;DHT22;6082;49.306;12.862;2023-07-20T12:15:27;25.10;71.90
12043;DHT22;6082;49.306;12.862;2023-07-20T12:17:56;25.20;74.00
12043;DHT22;6082;49.306;12.862;2023-07-20T12:20:35;25.30;73.60
12043;DHT22;6082;49.306;12.862;2023-07-20T12:23:05;25.50;74.10
12043;DHT22;6082;49.306;12.862;2023-07-20T12:28:09;25.60;70.50
12043;DHT22;6082;49.306;12.862;2023-07-20T12:30:35;25.70;70.00
12043;DHT22;6082;49.306;12.862;2023-07-20T12:33:02;25.80;71.00
12043;DHT22;6082;49.306;12.862;2023-07-20T12:35:29;25.90;70.40
12043;DHT22;6082;49.306;12.862;2023-07-20T12:37:55;25.90;69.50
12043;DHT22;6082;49.306;12.862;2023-07-20T12:40:21;25.90;69.60
12043;DHT22;6082;49.306;12.862;2023-07-20T12:42:46;25.80;70.30
12043;DHT22;6082;49.306;12.862;2023-07-20T12:45:13;25.70;68.90
12043;DHT22;6082;49.306;12.862;2023-07-20T12:47:39;25.80;69.60
12043;DHT22;6082;49.306;12.862;2023-07-20T12:50:05;25.80;68.70
12043;DHT22;6082;49.306;12.862;2023-07-20T12:52:32;25.90;68.70
12043;DHT22;6082;49.306;12.862;2023-07-20T12:54:58;26.00;70.00
12043;DHT22;6082;49.306;12.862;2023-07-20T12:57:24;26.20;69.80
12043;DHT22;6082;49.306;12.862;2023-07-20T12:59:50;26.20;69.20
12043;DHT22;6082;49.306;12.862;2023-07-20T13:02:15;26.30;67.70
12043;DHT22;6082;49.306;12.862;2023-07-20T13:04:41;26.40;69.10
12043;DHT22;6082;49.306;12.862;2023-07-20T13:07:10;26.30;66.40
12043;DHT22;6082;49.306;12.862;2023-07-20T13:09:37;26.30;67.20
12043;DHT22;6082;49.306;12.862;2023-07-20T13:12:03;26.20;67.40
12043;DHT22;6082;49.306;12.862;2023-07-20T13:14:29;26.20;67.50
12043;DHT22;6082;49.306;12.862;2023-07-20T13:16:58;26.20;67.90
12043;DHT22;6082;49.306;12.862;2023-07-20T13:19:23;26.20;67.30
12043;DHT22;6082;49.306;12.862;2023-07-20T13:21:49;26.00;65.20
12043;DHT22;6082;49.306;12.862;2023-07-20T13:24:15;25.90;64.20
12043;DHT22;6082;49.306;12.862;2023-07-20T13:26:40;25.80;63.80
12043;DHT22;6082;49.306;12.862;2023-07-20T13:29:06;25.70;63.80
12043;DHT22;6082;49.306;12.862;2023-07-20T13:31:32;25.80;62.00
12043;DHT22;6082;49.306;12.862;2023-07-20T13:33:58;25.80;65.10
12043;DHT22;6082;49.306;12.862;2023-07-20T13:36:24;25.80;66.30
12043;DHT22;6082;49.306;12.862;2023-07-20T13:38:49;25.70;64.90
12043;DHT22;6082;49.306;12.862;2023-07-20T13:41:15;25.80;66.10
12043;DHT22;6082;49.306;12.862;2023-07-20T13:43:43;25.80;63.10
12043;DHT22;6082;49.306;12.862;2023-07-20T13:46:10;25.90;65.80
12043;DHT22;6082;49.306;12.862;2023-07-20T13:48:35;26.00;65.30
12043;DHT22;6082;49.306;12.862;2023-07-20T13:51:01;26.10;64.50
12043;DHT22;6082;49.306;12.862;2023-07-20T13:53:27;26.20;63.20
12043;DHT22;6082;49.306;12.862;2023-07-20T13:55:53;26.30;63.80
12043;DHT22;6082;49.306;12.862;2023-07-20T13:58:19;26.30;64.40
12043;DHT22;6082;49.306;12.862;2023-07-20T14:00:45;26.40;64.60
12043;DHT22;6082;49.306;12.862;2023-07-20T14:03:11;26.20;62.80
12043;DHT22;6082;49.306;12.862;2023-07-20T14:05:36;26.20;63.70
12043;DHT22;6082;49.306;12.862;2023-07-20T14:08:02;26.10;63.30
12043;DHT22;6082;49.306;12.862;2023-07-20T14:10:28;26.20;62.30
12043;DHT22;6082;49.306;12.862;2023-07-20T14:12:54;26.10;63.90
12043;DHT22;6082;49.306;12.862;2023-07-20T14:15:20;26.20;64.20
12043;DHT22;6082;49.306;12.862;2023-07-20T14:17:45;26.30;65.60
12043;DHT22;6082;49.306;12.862;2023-07-20T14:20:11;26.40;62.00
12043;DHT22;6082;49.306;12.862;2023-07-20T14:22:37;26.60;64.10
12043;DHT22;6082;49.306;12.862;2023-07-20T14:25:04;26.70;63.10
12043;DHT22;6082;49.306;12.862;2023-07-20T14:27:30;26.90;63.30
12043;DHT22;6082;49.306;12.862;2023-07-20T14:29:56;27.00;63.30
12043;DHT22;6082;49.306;12.862;2023-07-20T14:32:23;27.10;62.90
12043;DHT22;6082;49.306;12.862;2023-07-20T14:34:49;27.00;60.60
12043;DHT22;6082;49.306;12.862;2023-07-20T14:37:15;27.00;62.80
12043;DHT22;6082;49.306;12.862;2023-07-20T14:39:41;27.10;62.70
12043;DHT22;6082;49.306;12.862;2023-07-20T14:42:08;27.00;58.40
12043;DHT22;6082;49.306;12.862;2023-07-20T14:44:34;26.80;60.20
12043;DHT22;6082;49.306;12.862;2023-07-20T14:47:00;26.70;61.00
12043;DHT22;6082;49.306;12.862;2023-07-20T14:49:26;26.70;62.30
12043;DHT22;6082;49.306;12.862;2023-07-20T14:51:53;26.80;62.20
12043;DHT22;6082;49.306;12.862;2023-07-20T14:54:19;26.80;62.00
12043;DHT22;6082;49.306;12.862;2023-07-20T14:56:51;26.80;58.30
12043;DHT22;6082;49.306;12.862;2023-07-20T14:59:19;26.80;62.30
12043;DHT22;6082;49.306;12.862;2023-07-20T15:01:49;26.90;61.80
12043;DHT22;6082;49.306;12.862;2023-07-20T15:04:15;26.70;59.00
12043;DHT22;6082;49.306;12.862;2023-07-20T15:06:41;26.70;60.60
12043;DHT22;6082;49.306;12.862;2023-07-20T15:09:08;26.60;59.00
12043;DHT22;6082;49.306;12.862;2023-07-20T15:11:36;26.50;58.70
12043;DHT22;6082;49.306;12.862;2023-07-20T15:14:03;26.60;60.70
12043;DHT22;6082;49.306;12.862;2023-07-20T15:16:32;26.60;60.60
12043;DHT22;6082;49.306;12.862;2023-07-20T15:18:58;26.60;60.70
12043;DHT22;6082;49.306;12.862;2023-07-20T15:21:24;26.60;61.30
12043;DHT22;6082;49.306;12.862;2023-07-20T15:23:56;26.60;57.20
12043;DHT22;6082;49.306;12.862;2023-07-20T15:26:23;26.60;59.10
12043;DHT22;6082;49.306;12.862;2023-07-20T15:28:49;26.70;59.30
12043;DHT22;6082;49.306;12.862;2023-07-20T15:31:15;26.70;58.30
12043;DHT22;6082;49.306;12.862;2023-07-20T15:33:42;26.80;59.90
12043;DHT22;6082;49.306;12.862;2023-07-20T15:36:09;26.80;59.20
12043;DHT22;6082;49.306;12.862;2023-07-20T15:38:35;26.80;59.50
12043;DHT22;6082;49.306;12.862;2023-07-20T15:41:01;26.90;59.70
12043;DHT22;6082;49.306;12.862;2023-07-20T15:43:27;26.90;59.00
12043;DHT22;6082;49.306;12.862;2023-07-20T15:46:02;26.90;58.60
12043;DHT22;6082;49.306;12.862;2023-07-20T15:48:37;26.80;57.50
12043;DHT22;6082;49.306;12.862;2023-07-20T15:51:04;26.90;57.80
12043;DHT22;6082;49.306;12.862;2023-07-20T15:53:30;26.80;57.80
12043;DHT22;6082;49.306;12.862;2023-07-20T15:55:56;26.90;57.50
12043;DHT22;6082;49.306;12.862;2023-07-20T15:58:22;26.80;56.90